createdAt,value
2023-04-30T00:00:41.415Z,22.90
2023-04-30T00:02:04.513Z,22.60
2023-04-30T00:03:07.570Z,23.30
2023-04-30T00:04:10.612Z,23.70
2023-04-30T00:05:13.477Z,21.60
2023-04-30T00:06:16.432Z,22.60
2023-04-30T00:07:19.362Z,23.00
2023-04-30T00:08:22.290Z,23.00
2023-04-30T00:09:25.519Z,22.10
2023-04-30T00:10:28.434Z,22.80
2023-04-30T00:11:31.368Z,21.50
2023-04-30T00:12:34.186Z,23.30
2023-04-30T00:13:37.562Z,22.70
2023-04-30T00:14:40.380Z,23.80
2023-04-30T00:15:43.199Z,23.00
2023-04-30T00:16:46.504Z,22.70
2023-04-30T00:17:49.459Z,21.80
2023-04-30T00:18:52.404Z,23.90
2023-04-30T00:19:55.782Z,22.20
2023-04-30T00:20:58.718Z,21.40
2023-04-30T00:22:05.542Z,21.90
2023-04-30T00:23:08.497Z,22.00
2023-04-30T00:24:11.655Z,22.50
2023-04-30T00:25:14.573Z,23.30
2023-04-30T00:26:17.402Z,22.20
2023-04-30T00:27:21.786Z,22.70
2023-04-30T00:28:24.647Z,23.40
2023-04-30T00:29:27.517Z,21.40
2023-04-30T00:30:30.467Z,22.10
2023-04-30T00:31:33.388Z,21.50
2023-04-30T00:32:36.449Z,21.80
2023-04-30T00:33:39.588Z,21.00
2023-04-30T00:34:42.805Z,21.80
2023-04-30T00:35:45.770Z,21.70
2023-04-30T00:36:48.590Z,21.50
2023-04-30T00:37:51.445Z,22.00
2023-04-30T00:38:54.331Z,22.10
2023-04-30T00:39:57.506Z,21.50
2023-04-30T00:41:00.500Z,22.70
2023-04-30T00:42:03.423Z,20.60
2023-04-30T00:43:06.333Z,22.40
2023-04-30T00:44:09.187Z,21.70
2023-04-30T00:45:12.288Z,21.70
2023-04-30T00:46:15.384Z,21.70
2023-04-30T00:47:18.475Z,22.40
2023-04-30T00:48:21.893Z,21.10
2023-04-30T00:49:25.374Z,22.90
2023-04-30T00:50:29.374Z,22.30
2023-04-30T00:51:33.445Z,21.60
2023-04-30T00:52:36.430Z,21.70
2023-04-30T00:53:41.373Z,21.70
2023-04-30T00:54:44.349Z,22.00
2023-04-30T00:55:48.648Z,21.60
2023-04-30T00:56:52.140Z,21.40
2023-04-30T00:57:55.287Z,21.20
2023-04-30T00:58:58.496Z,21.80
2023-04-30T01:00:02.122Z,21.20
2023-04-30T01:01:06.929Z,21.30
2023-04-30T01:02:10.376Z,20.90
2023-04-30T01:03:14.521Z,21.60
2023-04-30T01:04:18.382Z,21.30
2023-04-30T01:05:22.985Z,22.30
2023-04-30T01:06:27.037Z,21.70
2023-04-30T01:07:31.402Z,22.30
2023-04-30T01:08:34.750Z,22.70
2023-04-30T01:09:38.186Z,21.80
2023-04-30T01:11:19.880Z,22.50
2023-04-30T01:12:42.845Z,21.80
2023-04-30T01:14:08.458Z,21.20
2023-04-30T01:15:33.416Z,21.80
2023-04-30T01:16:58.402Z,22.30
2023-04-30T01:18:09.267Z,20.40
2023-04-30T01:19:41.129Z,21.60
2023-04-30T01:21:07.748Z,21.00
2023-04-30T01:22:24.159Z,21.60
2023-04-30T01:23:35.980Z,21.20
2023-04-30T01:25:02.186Z,20.30
2023-04-30T01:26:08.434Z,20.60
2023-04-30T01:27:48.343Z,22.30
2023-04-30T01:28:53.458Z,21.60
2023-04-30T01:29:58.018Z,22.60
2023-04-30T01:31:01.635Z,21.20
2023-04-30T01:32:04.593Z,21.30
2023-04-30T01:33:07.580Z,22.40
2023-04-30T01:34:10.635Z,21.30
2023-04-30T01:35:13.479Z,22.80
2023-04-30T01:37:10.651Z,21.90
2023-04-30T01:38:37.746Z,21.80
2023-04-30T01:40:11.432Z,21.60
2023-04-30T01:41:24.761Z,22.40
2023-04-30T01:43:05.793Z,21.40
2023-04-30T01:44:41.239Z,22.50
2023-04-30T01:45:54.509Z,21.90
2023-04-30T01:47:17.262Z,22.70
2023-04-30T01:48:32.626Z,24.40
2023-04-30T01:50:01.076Z,23.10
2023-04-30T01:51:22.750Z,22.40
2023-04-30T01:52:43.054Z,23.80
2023-04-30T01:53:47.003Z,24.20
2023-04-30T01:54:56.420Z,24.10
2023-04-30T01:56:03.733Z,23.60
2023-04-30T01:57:11.629Z,25.20
2023-04-30T01:58:16.767Z,24.00
2023-04-30T01:59:20.266Z,25.40
2023-04-30T02:00:23.659Z,25.10
2023-04-30T02:01:28.740Z,24.70
2023-04-30T02:02:31.916Z,25.90
2023-04-30T02:03:34.844Z,25.60
2023-04-30T02:04:38.403Z,26.30
2023-04-30T02:05:41.382Z,24.00
2023-04-30T02:06:44.311Z,24.80
2023-04-30T02:07:49.297Z,25.40
2023-04-30T02:08:52.245Z,25.10
2023-04-30T02:09:55.335Z,25.10
2023-04-30T02:10:58.400Z,25.50
2023-04-30T02:12:01.284Z,25.70
2023-04-30T02:13:04.173Z,27.00
2023-04-30T02:14:07.199Z,25.00
2023-04-30T02:15:10.956Z,25.40
2023-04-30T02:16:14.019Z,25.50
2023-04-30T02:17:16.901Z,26.70
2023-04-30T02:18:19.802Z,26.60
2023-04-30T02:19:23.137Z,26.90
2023-04-30T02:20:25.982Z,28.10
2023-04-30T02:21:29.381Z,26.50
2023-04-30T02:22:32.272Z,27.90
2023-04-30T02:23:35.440Z,26.50
2023-04-30T02:24:38.297Z,26.20
2023-04-30T02:25:41.771Z,26.80
2023-04-30T02:26:44.688Z,25.90
2023-04-30T02:27:47.777Z,27.10
2023-04-30T02:28:50.677Z,26.30
2023-04-30T02:29:54.138Z,26.70
2023-04-30T02:30:57.414Z,28.20
2023-04-30T02:32:00.896Z,26.20
2023-04-30T02:33:03.976Z,26.60
2023-04-30T02:34:06.901Z,26.60
2023-04-30T02:35:09.849Z,26.70
2023-04-30T02:36:12.737Z,27.30
2023-04-30T02:37:16.111Z,25.70
2023-04-30T02:38:18.950Z,26.40
2023-04-30T02:39:22.003Z,25.00
2023-04-30T02:40:24.887Z,24.40
2023-04-30T02:41:27.711Z,24.00
2023-04-30T02:42:31.095Z,24.50
2023-04-30T02:43:33.986Z,23.70
2023-04-30T02:44:36.950Z,24.80
2023-04-30T02:45:40.420Z,23.20
2023-04-30T02:46:43.320Z,23.90
2023-04-30T02:47:46.201Z,23.90
2023-04-30T02:48:49.167Z,22.00
2023-04-30T02:49:52.724Z,23.80
2023-04-30T02:50:55.875Z,21.60
2023-04-30T02:51:58.787Z,22.10
2023-04-30T02:53:01.974Z,21.70
2023-04-30T02:54:04.776Z,21.90
2023-04-30T02:55:08.103Z,21.40
2023-04-30T02:56:11.219Z,21.00
2023-04-30T02:57:14.140Z,21.60
2023-04-30T02:58:17.013Z,21.00
2023-04-30T02:59:19.900Z,22.00
2023-04-30T03:00:23.266Z,21.70
2023-04-30T03:01:26.420Z,21.50
2023-04-30T03:02:29.861Z,21.30
2023-04-30T03:03:33.780Z,21.60
2023-04-30T03:04:36.689Z,20.00
2023-04-30T03:05:39.872Z,20.20
2023-04-30T03:06:42.717Z,20.00
2023-04-30T03:07:47.168Z,20.80
2023-04-30T03:08:50.028Z,20.50
2023-04-30T03:09:53.036Z,19.90
2023-04-30T03:10:56.241Z,20.50
2023-04-30T03:11:59.288Z,20.60
2023-04-30T03:13:02.294Z,19.10
2023-04-30T03:14:05.252Z,19.70
2023-04-30T03:15:09.032Z,19.60
2023-04-30T03:16:12.065Z,20.00
2023-04-30T03:17:14.990Z,20.00
2023-04-30T03:18:17.863Z,18.80
2023-04-30T03:19:25.135Z,19.20
2023-04-30T03:20:28.365Z,19.20
2023-04-30T03:21:31.602Z,19.60
2023-04-30T03:22:34.504Z,18.80
2023-04-30T03:23:37.714Z,18.60
2023-04-30T03:24:41.258Z,19.60
2023-04-30T03:25:44.897Z,18.00
2023-04-30T03:26:47.793Z,17.30
2023-04-30T03:27:50.661Z,17.20
2023-04-30T03:28:55.244Z,16.80
2023-04-30T03:29:58.058Z,17.60
2023-04-30T03:31:01.256Z,17.80
2023-04-30T03:32:04.446Z,15.80
2023-04-30T03:33:07.986Z,15.80
2023-04-30T03:34:11.483Z,15.60
2023-04-30T03:35:14.535Z,15.20
2023-04-30T03:36:17.387Z,15.80
2023-04-30T03:37:20.287Z,15.10
2023-04-30T03:38:23.251Z,16.10
2023-04-30T03:39:26.235Z,15.00
2023-04-30T03:40:29.307Z,15.40
2023-04-30T03:41:32.232Z,14.60
2023-04-30T03:42:35.155Z,14.60
2023-04-30T03:43:38.337Z,16.10
2023-04-30T03:44:41.408Z,15.10
2023-04-30T03:45:44.739Z,16.40
2023-04-30T03:46:47.610Z,15.80
2023-04-30T03:47:52.237Z,16.00
2023-04-30T03:48:55.209Z,15.90
2023-04-30T03:49:58.115Z,16.10
2023-04-30T03:51:01.427Z,16.90
2023-04-30T03:52:05.729Z,16.40
2023-04-30T03:53:09.147Z,16.60
2023-04-30T03:54:12.092Z,16.10
2023-04-30T03:55:15.284Z,17.20
2023-04-30T03:56:18.332Z,16.10
2023-04-30T03:57:21.783Z,15.50
2023-04-30T03:58:24.967Z,15.40
2023-04-30T03:59:27.783Z,16.60
2023-04-30T04:00:31.235Z,15.50
2023-04-30T04:01:34.360Z,14.60
2023-04-30T04:02:37.844Z,14.60
2023-04-30T04:03:40.998Z,14.70
2023-04-30T04:04:44.109Z,14.40
2023-04-30T04:05:47.409Z,13.70
2023-04-30T04:06:50.661Z,13.10
2023-04-30T04:07:54.048Z,13.30
2023-04-30T04:08:56.871Z,12.70
2023-04-30T04:09:59.790Z,12.20
2023-04-30T04:11:03.344Z,12.60
2023-04-30T04:12:06.784Z,12.40
2023-04-30T04:13:09.723Z,12.80
2023-04-30T04:14:12.724Z,12.90
2023-04-30T04:15:15.665Z,12.10
2023-04-30T04:16:20.786Z,13.40
2023-04-30T04:17:23.777Z,12.40
2023-04-30T04:18:26.734Z,14.20
2023-04-30T04:19:29.648Z,13.40
2023-04-30T04:20:34.084Z,13.00
2023-04-30T04:21:37.124Z,14.30
2023-04-30T04:22:43.072Z,13.80
2023-04-30T04:23:46.444Z,13.50
2023-04-30T04:24:49.904Z,14.60
2023-04-30T04:25:55.508Z,14.60
2023-04-30T04:26:58.384Z,14.30
2023-04-30T04:28:01.271Z,13.60
2023-04-30T04:29:05.010Z,14.30
2023-04-30T04:30:08.343Z,15.20
2023-04-30T04:31:11.673Z,14.70
2023-04-30T04:32:15.039Z,14.20
2023-04-30T04:33:18.369Z,15.00
2023-04-30T04:34:21.409Z,15.30
2023-04-30T04:35:24.364Z,14.20
2023-04-30T04:36:28.816Z,14.00
2023-04-30T04:37:32.091Z,14.30
2023-04-30T04:38:34.933Z,13.90
2023-04-30T04:39:38.600Z,14.20
2023-04-30T04:40:41.547Z,13.70
2023-04-30T04:41:44.701Z,14.40
2023-04-30T04:42:50.519Z,12.80
2023-04-30T04:43:53.549Z,11.90
2023-04-30T04:44:56.857Z,12.50
2023-04-30T04:45:59.771Z,12.10
2023-04-30T04:47:03.537Z,12.80
2023-04-30T04:48:07.459Z,12.80
2023-04-30T04:49:10.416Z,12.40
2023-04-30T04:50:13.846Z,12.60
2023-04-30T04:51:16.908Z,11.50
2023-04-30T04:52:19.815Z,11.50
2023-04-30T04:53:24.289Z,12.00
2023-04-30T04:54:27.209Z,11.30
2023-04-30T04:55:30.114Z,10.90
2023-04-30T04:56:34.157Z,11.10
2023-04-30T04:57:37.052Z,11.70
2023-04-30T04:58:40.063Z,11.60
2023-04-30T04:59:42.928Z,11.80
2023-04-30T05:00:45.889Z,11.40
2023-04-30T05:01:49.769Z,12.90
2023-04-30T05:02:53.613Z,12.40
2023-04-30T05:03:56.863Z,11.90
2023-04-30T05:05:00.158Z,12.80
2023-04-30T05:06:03.929Z,11.60
2023-04-30T05:07:08.182Z,12.40
2023-04-30T05:08:11.167Z,12.40
2023-04-30T05:09:14.147Z,12.10
2023-04-30T05:10:17.216Z,13.60
2023-04-30T05:11:20.115Z,12.90
2023-04-30T05:12:23.155Z,13.40
2023-04-30T05:13:26.464Z,13.00
2023-04-30T05:14:29.516Z,13.20
2023-04-30T05:15:32.382Z,13.50
2023-04-30T05:16:35.457Z,13.20
2023-04-30T05:17:38.443Z,12.10
2023-04-30T05:18:41.370Z,12.10
2023-04-30T05:19:44.761Z,11.70
2023-04-30T05:20:47.665Z,11.50
2023-04-30T05:21:51.392Z,12.00
2023-04-30T05:22:54.218Z,12.50
2023-04-30T05:23:57.228Z,11.40
2023-04-30T05:25:00.325Z,10.80
2023-04-30T05:26:03.914Z,12.10
2023-04-30T05:27:06.781Z,11.50
2023-04-30T05:28:09.956Z,12.10
2023-04-30T05:29:12.987Z,11.70
2023-04-30T05:30:15.978Z,11.50
2023-04-30T05:31:20.784Z,11.00
2023-04-30T05:32:24.102Z,12.80
2023-04-30T05:33:27.456Z,12.20
2023-04-30T05:34:30.403Z,11.70
2023-04-30T05:35:36.119Z,12.50
2023-04-30T05:36:39.258Z,12.60
2023-04-30T05:37:42.119Z,12.60
2023-04-30T05:38:45.013Z,12.60
2023-04-30T05:39:47.915Z,12.90
2023-04-30T05:40:50.815Z,12.60
2023-04-30T05:41:53.665Z,12.40
2023-04-30T05:42:56.784Z,13.20
2023-04-30T05:43:59.744Z,12.50
2023-04-30T05:45:03.155Z,13.70
2023-04-30T05:46:06.703Z,13.00
2023-04-30T05:47:09.795Z,12.60
2023-04-30T05:48:13.163Z,13.10
2023-04-30T05:49:16.103Z,12.80
2023-04-30T05:50:19.008Z,13.40
2023-04-30T05:51:21.873Z,13.60
2023-04-30T05:52:24.827Z,14.10
2023-04-30T05:53:28.356Z,13.90
2023-04-30T05:54:31.462Z,14.70
2023-04-30T05:55:34.725Z,14.40
2023-04-30T05:56:37.592Z,15.10
2023-04-30T05:57:40.459Z,15.40
2023-04-30T05:58:43.369Z,15.40
2023-04-30T05:59:46.223Z,15.70
2023-04-30T06:00:52.102Z,15.50
2023-04-30T06:01:55.021Z,17.00
2023-04-30T06:02:58.220Z,17.20
2023-04-30T06:04:01.420Z,17.50
2023-04-30T06:05:04.597Z,17.80
2023-04-30T06:06:07.729Z,16.80
2023-04-30T06:07:10.909Z,16.70
2023-04-30T06:08:14.115Z,18.60
2023-04-30T06:09:16.942Z,17.60
2023-04-30T06:10:19.790Z,18.70
2023-04-30T06:11:22.772Z,18.10
2023-04-30T06:12:26.168Z,16.80
2023-04-30T06:13:29.055Z,17.70
2023-04-30T06:14:32.176Z,16.40
2023-04-30T06:15:35.198Z,16.20
2023-04-30T06:16:38.595Z,17.00
2023-04-30T06:17:41.547Z,17.40
2023-04-30T06:18:44.760Z,16.40
2023-04-30T06:19:47.628Z,17.10
2023-04-30T06:20:50.546Z,16.10
2023-04-30T06:21:53.372Z,16.30
2023-04-30T06:22:56.254Z,15.70
2023-04-30T06:23:59.128Z,15.70
2023-04-30T06:25:02.045Z,15.10
2023-04-30T06:26:05.004Z,15.20
2023-04-30T06:27:07.843Z,15.50
2023-04-30T06:28:10.864Z,15.30
2023-04-30T06:29:13.757Z,15.20
2023-04-30T06:30:16.963Z,14.90
2023-04-30T06:31:19.885Z,13.90
2023-04-30T06:32:22.833Z,13.60
2023-04-30T06:33:25.838Z,13.60
2023-04-30T06:34:28.805Z,13.40
2023-04-30T06:35:31.626Z,12.70
2023-04-30T06:36:34.494Z,12.80
2023-04-30T06:37:38.121Z,11.90
2023-04-30T06:38:42.622Z,12.50
2023-04-30T06:39:45.569Z,12.70
2023-04-30T06:40:48.542Z,12.00
2023-04-30T06:41:52.118Z,11.10
2023-04-30T06:42:57.898Z,11.00
2023-04-30T06:44:00.871Z,11.00
2023-04-30T06:45:04.179Z,10.50
2023-04-30T06:46:07.155Z,9.80
2023-04-30T06:47:13.653Z,10.10
2023-04-30T06:48:16.631Z,9.70
2023-04-30T06:49:19.544Z,10.10
2023-04-30T06:50:22.439Z,8.70
2023-04-30T06:51:25.726Z,8.10
2023-04-30T06:52:31.264Z,6.90
2023-04-30T06:53:34.138Z,6.80
2023-04-30T06:54:37.180Z,6.80
2023-04-30T06:55:41.396Z,6.00
2023-04-30T06:56:45.202Z,6.20
2023-04-30T06:57:48.277Z,5.80
2023-04-30T06:58:51.112Z,5.50
2023-04-30T06:59:55.998Z,5.50
2023-04-30T07:00:59.016Z,5.60
2023-04-30T07:02:02.062Z,4.90
2023-04-30T07:03:05.058Z,4.50
2023-04-30T07:04:08.000Z,4.30
2023-04-30T07:05:12.206Z,4.50
2023-04-30T07:06:15.624Z,4.40
2023-04-30T07:07:18.608Z,4.30
2023-04-30T07:08:22.130Z,4.90
2023-04-30T07:09:24.973Z,4.20
2023-04-30T07:10:28.066Z,4.70
2023-04-30T07:11:31.230Z,4.10
2023-04-30T07:12:34.197Z,4.00
2023-04-30T07:13:37.384Z,4.60
2023-04-30T07:14:40.416Z,4.40
2023-04-30T07:15:43.520Z,4.40
2023-04-30T07:16:46.448Z,4.20
2023-04-30T07:17:49.689Z,4.50
2023-04-30T07:18:52.607Z,5.20
2023-04-30T07:19:56.022Z,3.50
2023-04-30T07:20:59.566Z,3.80
2023-04-30T07:22:02.607Z,4.00
2023-04-30T07:23:05.449Z,3.70
2023-04-30T07:24:08.436Z,4.00
2023-04-30T07:25:12.334Z,3.00
2023-04-30T07:26:15.766Z,3.40
2023-04-30T07:27:18.626Z,3.60
2023-04-30T07:28:21.501Z,4.10
2023-04-30T07:29:24.351Z,3.60
2023-04-30T07:30:27.196Z,3.00
2023-04-30T07:31:30.263Z,3.90
2023-04-30T07:32:34.442Z,4.00
2023-04-30T07:33:37.572Z,3.50
2023-04-30T07:34:42.238Z,3.40
2023-04-30T07:35:45.213Z,2.40
2023-04-30T07:36:49.267Z,2.70
2023-04-30T07:37:52.138Z,2.80
2023-04-30T07:38:55.604Z,2.50
2023-04-30T07:39:58.540Z,2.70
2023-04-30T07:41:02.338Z,2.80
2023-04-30T07:42:05.588Z,3.50
2023-04-30T07:43:08.392Z,3.10
2023-04-30T07:44:12.206Z,3.40
2023-04-30T07:45:15.187Z,3.50
2023-04-30T07:46:18.299Z,3.10
2023-04-30T07:47:21.396Z,3.10
2023-04-30T07:48:24.263Z,2.80
2023-04-30T07:49:27.160Z,3.10
2023-04-30T07:50:33.928Z,3.00
2023-04-30T07:51:37.525Z,2.90
2023-04-30T07:52:41.297Z,3.40
2023-04-30T07:53:44.144Z,3.00
2023-04-30T07:54:47.035Z,2.90
2023-04-30T07:55:49.872Z,2.50
2023-04-30T07:56:52.745Z,2.80
2023-04-30T07:57:55.674Z,2.70
2023-04-30T07:58:58.496Z,3.10
2023-04-30T08:00:01.302Z,2.90
2023-04-30T08:01:04.290Z,2.60
2023-04-30T08:02:08.855Z,3.00
2023-04-30T08:03:12.488Z,2.60
2023-04-30T08:04:15.542Z,2.60
2023-04-30T08:05:18.607Z,2.90
2023-04-30T08:06:21.927Z,2.70
2023-04-30T08:07:25.652Z,2.40
2023-04-30T08:08:28.527Z,2.90
2023-04-30T08:09:31.630Z,2.90
2023-04-30T08:10:34.992Z,2.80
2023-04-30T08:11:37.865Z,2.70
2023-04-30T08:12:40.883Z,2.60
2023-04-30T08:13:43.808Z,2.40
2023-04-30T08:14:46.655Z,2.20
2023-04-30T08:15:49.589Z,2.10
2023-04-30T08:16:52.554Z,2.40
2023-04-30T08:17:55.684Z,2.40
2023-04-30T08:18:59.433Z,2.30
2023-04-30T08:20:04.557Z,2.40
2023-04-30T08:21:07.680Z,2.60
2023-04-30T08:22:10.899Z,2.00
2023-04-30T08:23:13.805Z,2.40
2023-04-30T08:24:16.662Z,2.90
2023-04-30T08:25:19.787Z,2.50
2023-04-30T08:26:23.501Z,2.60
2023-04-30T08:27:26.352Z,2.40
2023-04-30T08:28:29.199Z,3.20
2023-04-30T08:29:32.066Z,2.40
2023-04-30T08:30:34.929Z,2.60
2023-04-30T08:31:37.974Z,3.50
2023-04-30T08:32:41.678Z,3.60
2023-04-30T08:33:44.604Z,4.20
2023-04-30T08:34:47.490Z,2.80
2023-04-30T08:35:51.645Z,2.50
2023-04-30T08:36:54.558Z,2.50
2023-04-30T08:37:57.513Z,2.50
2023-04-30T08:39:02.217Z,2.50
2023-04-30T08:40:09.791Z,3.00
2023-04-30T08:41:13.867Z,2.70
2023-04-30T08:42:19.155Z,2.50
2023-04-30T08:43:22.651Z,2.60
2023-04-30T08:44:27.487Z,2.20
2023-04-30T08:45:32.235Z,2.20
2023-04-30T08:46:37.158Z,2.50
2023-04-30T08:47:41.195Z,3.00
2023-04-30T08:48:44.997Z,2.70
2023-04-30T08:49:52.260Z,2.10
2023-04-30T08:50:55.347Z,2.50
2023-04-30T08:52:00.326Z,2.30
2023-04-30T08:53:03.410Z,2.20
2023-04-30T08:54:06.404Z,2.00
2023-04-30T08:55:11.227Z,2.10
2023-04-30T08:56:14.232Z,2.10
2023-04-30T08:57:17.123Z,1.80
2023-04-30T08:58:20.165Z,2.10
2023-04-30T08:59:23.042Z,1.90
2023-04-30T09:00:27.037Z,1.90
2023-04-30T09:01:31.101Z,2.20
2023-04-30T09:02:34.978Z,1.80
2023-04-30T09:03:38.188Z,3.30
2023-04-30T09:04:41.304Z,3.30
2023-04-30T09:05:44.315Z,2.30
2023-04-30T09:06:47.324Z,1.60
2023-04-30T09:08:01.543Z,1.90
2023-04-30T09:09:11.658Z,2.00
2023-04-30T09:10:22.965Z,1.70
2023-04-30T09:11:31.990Z,1.90
2023-04-30T09:12:36.253Z,1.80
2023-04-30T09:13:42.110Z,1.80
2023-04-30T09:15:05.748Z,2.10
2023-04-30T09:16:08.717Z,1.80
2023-04-30T09:17:22.091Z,2.10
2023-04-30T09:18:24.972Z,1.80
2023-04-30T09:19:29.791Z,1.70
2023-04-30T09:20:32.796Z,1.90
2023-04-30T09:21:36.886Z,1.80
2023-04-30T09:22:41.541Z,2.10
2023-04-30T09:24:05.463Z,1.50
2023-04-30T09:25:09.785Z,1.80
2023-04-30T09:26:26.272Z,1.60
2023-04-30T09:27:29.122Z,1.50
2023-04-30T09:28:32.070Z,1.50
2023-04-30T09:29:38.060Z,1.50
2023-04-30T09:30:41.702Z,1.50
2023-04-30T09:31:47.718Z,1.50
2023-04-30T09:32:57.104Z,2.10
2023-04-30T09:34:00.425Z,1.60
2023-04-30T09:35:03.336Z,1.80
2023-04-30T09:36:10.045Z,1.80
2023-04-30T09:37:13.548Z,1.80
2023-04-30T09:38:32.006Z,1.60
2023-04-30T09:39:47.525Z,1.30
2023-04-30T09:40:50.511Z,1.40
2023-04-30T09:41:57.211Z,1.80
2023-04-30T09:43:00.426Z,1.40
2023-04-30T09:44:03.512Z,1.40
2023-04-30T09:45:07.838Z,1.20
2023-04-30T09:46:11.276Z,1.60
2023-04-30T09:47:21.959Z,1.40
2023-04-30T09:48:29.470Z,1.60
2023-04-30T09:49:32.475Z,1.80
2023-04-30T09:50:43.256Z,1.80
2023-04-30T09:52:02.436Z,2.30
2023-04-30T09:53:09.844Z,1.60
2023-04-30T09:54:14.145Z,1.90
2023-04-30T09:55:17.398Z,1.40
2023-04-30T09:56:26.836Z,2.00
2023-04-30T09:57:32.428Z,2.00
2023-04-30T09:58:39.018Z,1.50
2023-04-30T09:59:46.800Z,1.60
2023-04-30T10:00:52.535Z,2.10
2023-04-30T10:01:58.005Z,2.20
2023-04-30T10:03:07.301Z,1.60
2023-04-30T10:04:10.517Z,2.10
2023-04-30T10:05:13.551Z,1.60
2023-04-30T10:06:19.642Z,1.90
2023-04-30T10:07:25.355Z,1.70
2023-04-30T10:08:28.981Z,1.80
2023-04-30T10:09:44.908Z,1.70
2023-04-30T10:10:54.376Z,1.90
2023-04-30T10:13:07.560Z,1.70
2023-04-30T10:14:12.983Z,1.70
2023-04-30T10:15:21.162Z,1.40
2023-04-30T10:16:34.770Z,1.90
2023-04-30T10:17:41.649Z,1.90
2023-04-30T10:18:46.586Z,2.10
2023-04-30T10:19:52.578Z,1.60
2023-04-30T10:20:57.173Z,1.60
2023-04-30T10:22:01.715Z,1.40
2023-04-30T10:23:05.722Z,1.80
2023-04-30T10:24:11.634Z,1.50
2023-04-30T10:25:14.734Z,1.60
2023-04-30T10:26:18.042Z,1.80
2023-04-30T10:27:21.406Z,1.50
2023-04-30T10:28:26.027Z,1.30
2023-04-30T10:29:28.918Z,1.80
2023-04-30T10:30:32.342Z,1.20
2023-04-30T10:31:37.374Z,1.20
2023-04-30T10:33:01.536Z,1.00
2023-04-30T10:34:29.106Z,1.10
2023-04-30T10:35:41.589Z,0.80
2023-04-30T10:36:50.637Z,1.10
2023-04-30T10:38:09.992Z,1.00
2023-04-30T10:39:13.714Z,1.30
2023-04-30T10:40:16.715Z,0.90
2023-04-30T10:41:20.373Z,1.20
2023-04-30T10:42:23.283Z,1.60
2023-04-30T10:43:26.549Z,1.40
2023-04-30T10:44:32.842Z,1.30
2023-04-30T10:45:38.299Z,1.00
2023-04-30T10:46:41.789Z,1.10
2023-04-30T10:47:48.293Z,1.50
2023-04-30T10:48:54.289Z,1.20
2023-04-30T10:50:09.071Z,1.30
2023-04-30T10:51:11.963Z,1.00
2023-04-30T10:52:14.774Z,1.20
2023-04-30T10:53:20.260Z,1.30
2023-04-30T10:54:30.184Z,1.10
2023-04-30T10:55:33.608Z,1.10
2023-04-30T10:56:36.668Z,1.30
2023-04-30T10:57:44.123Z,1.50
2023-04-30T10:58:47.596Z,1.30
2023-04-30T10:59:50.371Z,1.40
2023-04-30T11:01:12.299Z,1.10
2023-04-30T11:02:18.121Z,1.50
2023-04-30T11:03:22.608Z,1.60
2023-04-30T11:04:26.620Z,1.40
2023-04-30T11:05:39.980Z,1.20
2023-04-30T11:07:00.853Z,1.10
2023-04-30T11:08:04.266Z,1.20
2023-04-30T11:09:07.425Z,1.40
2023-04-30T11:10:10.672Z,1.40
2023-04-30T11:11:22.983Z,1.00
2023-04-30T11:12:30.565Z,1.40
2023-04-30T11:13:47.740Z,1.00
2023-04-30T11:14:50.933Z,1.00
2023-04-30T11:15:54.493Z,1.20
2023-04-30T11:16:59.670Z,1.20
2023-04-30T11:18:02.854Z,1.20
2023-04-30T11:19:09.480Z,1.30
2023-04-30T11:20:15.456Z,1.50
2023-04-30T11:21:21.514Z,1.40
2023-04-30T11:22:25.438Z,1.60
2023-04-30T11:23:39.389Z,1.20
2023-04-30T11:25:00.006Z,1.30
2023-04-30T11:26:03.731Z,1.10
2023-04-30T11:27:06.998Z,1.20
2023-04-30T11:28:15.884Z,1.40
2023-04-30T11:29:18.991Z,1.10
2023-04-30T11:30:22.352Z,1.10
2023-04-30T11:31:33.768Z,1.30
2023-04-30T11:32:38.667Z,1.30
2023-04-30T11:33:41.816Z,1.10
2023-04-30T11:35:57.428Z,1.00
2023-04-30T11:37:03.618Z,1.10
2023-04-30T11:38:08.659Z,1.40
2023-04-30T11:39:12.196Z,1.20
2023-04-30T11:40:15.760Z,1.20
2023-04-30T11:41:21.488Z,1.30
2023-04-30T11:42:24.345Z,1.80
2023-04-30T11:43:32.004Z,1.40
2023-04-30T11:44:34.926Z,1.50
2023-04-30T11:45:39.363Z,1.20
2023-04-30T11:46:42.324Z,1.30
2023-04-30T11:47:46.377Z,1.20
2023-04-30T11:48:49.799Z,1.70
2023-04-30T11:49:53.659Z,1.80
2023-04-30T11:50:56.856Z,1.00
2023-04-30T11:51:59.835Z,1.10
2023-04-30T11:53:04.039Z,1.30
2023-04-30T11:54:08.856Z,1.30
2023-04-30T11:55:16.510Z,1.40
2023-04-30T11:56:21.458Z,1.10
2023-04-30T11:57:24.395Z,1.20
2023-04-30T11:58:28.976Z,1.20
2023-04-30T11:59:40.238Z,1.40
2023-04-30T12:00:43.160Z,1.50
2023-04-30T12:01:46.265Z,1.60
2023-04-30T12:02:50.262Z,1.20
2023-04-30T12:03:57.545Z,1.40
2023-04-30T12:05:00.729Z,1.60
2023-04-30T12:06:03.727Z,1.40
2023-04-30T12:07:08.963Z,1.50
2023-04-30T12:08:12.458Z,1.60
2023-04-30T12:09:15.294Z,1.40
2023-04-30T12:10:21.305Z,1.20
2023-04-30T12:11:29.432Z,1.20
2023-04-30T12:12:32.616Z,1.40
2023-04-30T12:13:35.528Z,1.40
2023-04-30T12:14:38.433Z,1.30
2023-04-30T12:15:41.472Z,1.20
2023-04-30T12:16:50.323Z,1.10
2023-04-30T12:17:55.224Z,1.00
2023-04-30T12:18:58.156Z,1.50
2023-04-30T12:20:01.656Z,1.10
2023-04-30T12:21:04.896Z,1.40
2023-04-30T12:22:07.792Z,1.20
2023-04-30T12:23:10.798Z,1.20
2023-04-30T12:24:15.239Z,1.00
2023-04-30T12:25:22.002Z,1.70
2023-04-30T12:26:25.009Z,1.00
2023-04-30T12:27:27.892Z,0.90
2023-04-30T12:28:30.892Z,1.10
2023-04-30T12:29:33.804Z,1.20
2023-04-30T12:30:36.787Z,1.10
2023-04-30T12:31:39.841Z,0.90
2023-04-30T12:32:45.434Z,1.00
2023-04-30T12:33:57.512Z,1.10
2023-04-30T12:35:01.916Z,1.10
2023-04-30T12:36:10.094Z,1.50
2023-04-30T12:37:16.801Z,1.10
2023-04-30T12:38:20.406Z,1.00
2023-04-30T12:39:23.270Z,0.80
2023-04-30T12:40:27.574Z,1.00
2023-04-30T12:41:30.520Z,1.30
2023-04-30T12:42:34.481Z,0.90
2023-04-30T12:43:37.327Z,1.10
2023-04-30T12:44:45.392Z,1.60
2023-04-30T12:45:55.810Z,1.20
2023-04-30T12:47:01.135Z,1.10
2023-04-30T12:48:04.345Z,1.10
2023-04-30T12:49:07.244Z,0.90
2023-04-30T12:50:14.145Z,1.00
2023-04-30T12:51:20.232Z,1.70
2023-04-30T12:52:26.953Z,1.30
2023-04-30T12:53:29.984Z,1.20
2023-04-30T12:54:33.596Z,1.20
2023-04-30T12:55:37.940Z,1.20
2023-04-30T12:56:58.145Z,1.00
2023-04-30T12:58:13.234Z,1.00
2023-04-30T12:59:17.337Z,1.10
2023-04-30T13:00:22.965Z,1.50
2023-04-30T13:01:26.520Z,1.20
2023-04-30T13:02:32.093Z,1.30
2023-04-30T13:03:35.453Z,1.00
2023-04-30T13:04:39.545Z,1.00
2023-04-30T13:05:46.288Z,1.00
2023-04-30T13:06:49.722Z,1.00
2023-04-30T13:07:55.822Z,1.50
2023-04-30T13:08:59.270Z,1.30
2023-04-30T13:10:02.432Z,1.10
2023-04-30T13:11:05.741Z,0.90
2023-04-30T13:12:08.780Z,1.20
2023-04-30T13:13:13.703Z,1.30
2023-04-30T13:14:17.839Z,1.10
2023-04-30T13:15:20.820Z,1.20
2023-04-30T13:16:25.072Z,1.20
2023-04-30T13:17:28.959Z,1.20
2023-04-30T13:18:33.114Z,1.40
2023-04-30T13:19:36.013Z,1.50
2023-04-30T13:20:39.173Z,1.30
2023-04-30T13:21:42.088Z,1.40
2023-04-30T13:22:45.194Z,1.30
2023-04-30T13:23:53.436Z,1.20
2023-04-30T13:26:00.157Z,1.30
2023-04-30T13:27:04.160Z,1.80
2023-04-30T13:28:07.309Z,1.60
2023-04-30T13:29:11.976Z,1.60
2023-04-30T13:30:14.844Z,1.40
2023-04-30T13:31:17.813Z,1.20
2023-04-30T13:32:20.914Z,1.50
2023-04-30T13:33:23.904Z,1.20
2023-04-30T13:34:26.974Z,1.90
2023-04-30T13:35:30.091Z,1.60
2023-04-30T13:36:33.153Z,1.10
2023-04-30T13:37:36.481Z,1.50
2023-04-30T13:38:39.641Z,1.40
2023-04-30T13:39:42.564Z,1.40
2023-04-30T13:40:45.387Z,1.50
2023-04-30T13:41:49.291Z,1.20
2023-04-30T13:42:52.165Z,1.40
2023-04-30T13:43:55.056Z,1.40
2023-04-30T13:44:58.214Z,1.50
2023-04-30T13:46:01.925Z,1.30
2023-04-30T13:47:04.902Z,1.30
2023-04-30T13:48:07.853Z,1.00
2023-04-30T13:49:10.754Z,1.20
2023-04-30T13:50:13.707Z,1.10
2023-04-30T13:51:16.589Z,1.00
2023-04-30T13:52:19.468Z,0.90
2023-04-30T13:53:22.788Z,0.90
2023-04-30T13:54:25.750Z,1.20
2023-04-30T13:55:29.419Z,1.40
2023-04-30T13:56:32.400Z,1.20
2023-04-30T13:57:35.565Z,1.40
2023-04-30T13:58:38.714Z,1.10
2023-04-30T13:59:41.699Z,1.10
2023-04-30T14:00:44.773Z,1.00
2023-04-30T14:01:47.733Z,1.30
2023-04-30T14:02:50.748Z,1.40
2023-04-30T14:03:53.840Z,1.30
2023-04-30T14:05:05.338Z,1.40
2023-04-30T14:06:09.821Z,0.90
2023-04-30T14:07:13.036Z,1.10
2023-04-30T14:08:15.897Z,0.90
2023-04-30T14:09:18.807Z,1.20
2023-04-30T14:10:21.876Z,1.50
2023-04-30T14:11:24.853Z,1.20
2023-04-30T14:12:30.623Z,1.10
2023-04-30T14:13:34.444Z,1.10